sensor_id;sensor_type;location;lat;lon;timestamp;P1;durP1;ratioP1;P2;durP2;ratioP2
5762;SDS011;2906;53.282;9.508;2022-12-05T00:00:02;56.90;;;23.20;;
5762;SDS011;2906;53.282;9.508;2022-12-05T00:01:16;55.42;;;22.85;;
5762;SDS011;2906;53.282;9.508;2022-12-05T00:02:19;58.38;;;23.48;;
5762;SDS011;2906;53.282;9.508;2022-12-05T00:03:22;57.63;;;21.33;;
5762;SDS011;2906;53.282;9.508;2022-12-05T00:04:23;59.33;;;23.30;;
5762;SDS011;2906;53.282;9.508;2022-12-05T00:05:26;58.72;;;23.80;;
5762;SDS011;2906;53.282;9.508;2022-12-05T00:06:28;49.95;;;21.20;;
5762;SDS011;2906;53.282;9.508;2022-12-05T00:07:37;56.90;;;21.58;;
5762;SDS011;2906;53.282;9.508;2022-12-05T00:08:40;59.75;;;23.92;;
5762;SDS011;2906;53.282;9.508;2022-12-05T00:09:41;56.17;;;22.65;;
5762;SDS011;2906;53.282;9.508;2022-12-05T00:10:44;50.72;;;20.10;;
5762;SDS011;2906;53.282;9.508;2022-12-05T00:11:45;52.38;;;22.08;;
5762;SDS011;2906;53.282;9.508;2022-12-05T00:12:48;58.50;;;23.42;;
5762;SDS011;2906;53.282;9.508;2022-12-05T00:13:50;55.45;;;23.50;;
5762;SDS011;2906;53.282;9.508;2022-12-05T00:14:53;60.45;;;23.35;;
5762;SDS011;2906;53.282;9.508;2022-12-05T00:15:54;63.53;;;24.25;;
5762;SDS011;2906;53.282;9.508;2022-12-05T00:16:57;58.83;;;22.60;;
5762;SDS011;2906;53.282;9.508;2022-12-05T00:17:59;54.28;;;22.88;;
5762;SDS011;2906;53.282;9.508;2022-12-05T00:19:02;62.05;;;23.30;;
5762;SDS011;2906;53.282;9.508;2022-12-05T00:20:04;53.25;;;22.83;;
5762;SDS011;2906;53.282;9.508;2022-12-05T00:21:10;61.80;;;22.33;;
5762;SDS011;2906;53.282;9.508;2022-12-05T00:22:13;62.38;;;24.10;;
5762;SDS011;2906;53.282;9.508;2022-12-05T00:23:15;60.55;;;22.83;;
5762;SDS011;2906;53.282;9.508;2022-12-05T00:24:16;58.58;;;23.17;;
5762;SDS011;2906;53.282;9.508;2022-12-05T00:25:19;52.80;;;21.65;;
5762;SDS011;2906;53.282;9.508;2022-12-05T00:26:21;62.42;;;23.35;;
5762;SDS011;2906;53.282;9.508;2022-12-05T00:27:24;58.65;;;23.02;;
5762;SDS011;2906;53.282;9.508;2022-12-05T00:28:25;61.13;;;23.55;;
5762;SDS011;2906;53.282;9.508;2022-12-05T00:29:27;58.28;;;22.40;;
5762;SDS011;2906;53.282;9.508;2022-12-05T00:30:30;56.78;;;21.90;;
5762;SDS011;2906;53.282;9.508;2022-12-05T00:31:31;50.05;;;21.42;;
5762;SDS011;2906;53.282;9.508;2022-12-05T00:32:34;65.38;;;23.80;;
5762;SDS011;2906;53.282;9.508;2022-12-05T00:33:36;61.38;;;22.98;;
5762;SDS011;2906;53.282;9.508;2022-12-05T00:34:39;51.42;;;21.25;;
5762;SDS011;2906;53.282;9.508;2022-12-05T00:35:41;55.67;;;23.67;;
5762;SDS011;2906;53.282;9.508;2022-12-05T00:36:42;56.08;;;22.73;;
5762;SDS011;2906;53.282;9.508;2022-12-05T00:37:45;52.60;;;20.67;;
5762;SDS011;2906;53.282;9.508;2022-12-05T00:38:46;62.60;;;22.65;;
5762;SDS011;2906;53.282;9.508;2022-12-05T00:39:49;60.97;;;21.27;;
5762;SDS011;2906;53.282;9.508;2022-12-05T00:40:50;57.45;;;22.63;;
5762;SDS011;2906;53.282;9.508;2022-12-05T00:41:53;50.28;;;21.90;;
5762;SDS011;2906;53.282;9.508;2022-12-05T00:42:55;60.42;;;23.45;;
5762;SDS011;2906;53.282;9.508;2022-12-05T00:43:57;49.75;;;21.30;;
5762;SDS011;2906;53.282;9.508;2022-12-05T00:45:00;57.40;;;22.38;;
5762;SDS011;2906;53.282;9.508;2022-12-05T00:46:01;56.25;;;22.40;;
5762;SDS011;2906;53.282;9.508;2022-12-05T00:47:10;59.35;;;22.73;;
5762;SDS011;2906;53.282;9.508;2022-12-05T00:48:11;56.03;;;22.80;;
5762;SDS011;2906;53.282;9.508;2022-12-05T00:49:15;56.40;;;20.17;;
5762;SDS011;2906;53.282;9.508;2022-12-05T00:50:17;55.55;;;22.85;;
5762;SDS011;2906;53.282;9.508;2022-12-05T00:51:19;64.47;;;23.98;;
5762;SDS011;2906;53.282;9.508;2022-12-05T00:52:22;57.53;;;22.50;;
5762;SDS011;2906;53.282;9.508;2022-12-05T00:53:23;60.10;;;22.92;;
5762;SDS011;2906;53.282;9.508;2022-12-05T00:54:25;58.53;;;22.08;;
5762;SDS011;2906;53.282;9.508;2022-12-05T00:55:28;56.35;;;21.73;;
5762;SDS011;2906;53.282;9.508;2022-12-05T00:56:29;53.70;;;22.17;;
5762;SDS011;2906;53.282;9.508;2022-12-05T00:57:32;58.20;;;22.25;;
5762;SDS011;2906;53.282;9.508;2022-12-05T00:58:33;65.88;;;23.30;;
5762;SDS011;2906;53.282;9.508;2022-12-05T00:59:36;62.67;;;22.35;;
5762;SDS011;2906;53.282;9.508;2022-12-05T01:00:37;56.42;;;21.70;;
5762;SDS011;2906;53.282;9.508;2022-12-05T01:01:40;54.70;;;21.95;;
5762;SDS011;2906;53.282;9.508;2022-12-05T01:02:42;51.95;;;21.65;;
5762;SDS011;2906;53.282;9.508;2022-12-05T01:03:44;63.70;;;24.02;;
5762;SDS011;2906;53.282;9.508;2022-12-05T01:04:47;59.53;;;21.15;;
5762;SDS011;2906;53.282;9.508;2022-12-05T01:05:50;56.50;;;22.73;;
5762;SDS011;2906;53.282;9.508;2022-12-05T01:06:55;53.63;;;21.90;;
5762;SDS011;2906;53.282;9.508;2022-12-05T01:07:57;61.47;;;21.65;;
5762;SDS011;2906;53.282;9.508;2022-12-05T01:08:59;56.97;;;23.48;;
5762;SDS011;2906;53.282;9.508;2022-12-05T01:10:01;59.92;;;23.35;;
5762;SDS011;2906;53.282;9.508;2022-12-05T01:11:03;56.72;;;21.10;;
5762;SDS011;2906;53.282;9.508;2022-12-05T01:12:05;62.97;;;22.55;;
5762;SDS011;2906;53.282;9.508;2022-12-05T01:13:07;56.35;;;21.60;;
5762;SDS011;2906;53.282;9.508;2022-12-05T01:14:09;54.20;;;21.70;;
5762;SDS011;2906;53.282;9.508;2022-12-05T01:15:11;55.35;;;21.98;;
5762;SDS011;2906;53.282;9.508;2022-12-05T01:16:14;57.22;;;22.77;;
5762;SDS011;2906;53.282;9.508;2022-12-05T01:17:16;59.03;;;21.88;;
5762;SDS011;2906;53.282;9.508;2022-12-05T01:18:18;55.03;;;22.38;;
5762;SDS011;2906;53.282;9.508;2022-12-05T01:19:21;55.55;;;21.50;;
5762;SDS011;2906;53.282;9.508;2022-12-05T01:20:26;57.35;;;22.38;;
5762;SDS011;2906;53.282;9.508;2022-12-05T01:21:27;60.97;;;21.58;;
5762;SDS011;2906;53.282;9.508;2022-12-05T01:22:29;55.85;;;20.90;;
5762;SDS011;2906;53.282;9.508;2022-12-05T01:23:30;58.58;;;20.90;;
5762;SDS011;2906;53.282;9.508;2022-12-05T01:24:33;60.40;;;22.73;;
5762;SDS011;2906;53.282;9.508;2022-12-05T01:25:38;54.47;;;20.30;;
5762;SDS011;2906;53.282;9.508;2022-12-05T01:26:40;58.42;;;22.02;;
5762;SDS011;2906;53.282;9.508;2022-12-05T01:27:42;57.97;;;22.27;;
5762;SDS011;2906;53.282;9.508;2022-12-05T01:28:44;50.70;;;19.50;;
5762;SDS011;2906;53.282;9.508;2022-12-05T01:29:46;51.30;;;20.92;;
5762;SDS011;2906;53.282;9.508;2022-12-05T01:30:48;53.97;;;22.17;;
5762;SDS011;2906;53.282;9.508;2022-12-05T01:31:50;55.00;;;21.27;;
5762;SDS011;2906;53.282;9.508;2022-12-05T01:32:52;56.38;;;21.40;;
5762;SDS011;2906;53.282;9.508;2022-12-05T01:33:55;59.05;;;22.17;;
5762;SDS011;2906;53.282;9.508;2022-12-05T01:34:56;56.78;;;21.42;;
5762;SDS011;2906;53.282;9.508;2022-12-05T01:36:00;53.08;;;20.67;;
5762;SDS011;2906;53.282;9.508;2022-12-05T01:37:02;57.33;;;22.00;;
5762;SDS011;2906;53.282;9.508;2022-12-05T01:38:04;53.67;;;21.13;;
5762;SDS011;2906;53.282;9.508;2022-12-05T01:39:07;62.15;;;21.85;;
5762;SDS011;2906;53.282;9.508;2022-12-05T01:40:09;55.92;;;21.83;;
5762;SDS011;2906;53.282;9.508;2022-12-05T01:41:12;58.55;;;19.73;;
5762;SDS011;2906;53.282;9.508;2022-12-05T01:42:15;60.33;;;21.48;;
5762;SDS011;2906;53.282;9.508;2022-12-05T01:43:17;60.53;;;22.38;;
5762;SDS011;2906;53.282;9.508;2022-12-05T01:45:37;55.83;;;21.17;;
5762;SDS011;2906;53.282;9.508;2022-12-05T01:46:43;54.42;;;20.83;;
5762;SDS011;2906;53.282;9.508;2022-12-05T01:47:45;50.90;;;20.45;;
5762;SDS011;2906;53.282;9.508;2022-12-05T01:48:47;53.63;;;20.27;;
5762;SDS011;2906;53.282;9.508;2022-12-05T01:49:49;58.83;;;20.90;;
5762;SDS011;2906;53.282;9.508;2022-12-05T01:50:51;52.15;;;20.92;;
5762;SDS011;2906;53.282;9.508;2022-12-05T01:51:55;59.28;;;20.63;;
5762;SDS011;2906;53.282;9.508;2022-12-05T01:52:59;59.42;;;21.23;;
5762;SDS011;2906;53.282;9.508;2022-12-05T01:54:00;51.15;;;20.45;;
5762;SDS011;2906;53.282;9.508;2022-12-05T01:55:06;64.88;;;22.50;;
5762;SDS011;2906;53.282;9.508;2022-12-05T01:56:09;56.10;;;21.27;;
5762;SDS011;2906;53.282;9.508;2022-12-05T01:57:11;57.28;;;20.70;;
5762;SDS011;2906;53.282;9.508;2022-12-05T01:58:13;51.97;;;20.30;;
5762;SDS011;2906;53.282;9.508;2022-12-05T01:59:16;51.22;;;19.98;;
5762;SDS011;2906;53.282;9.508;2022-12-05T02:00:19;57.92;;;21.90;;
5762;SDS011;2906;53.282;9.508;2022-12-05T02:01:21;52.75;;;20.58;;
5762;SDS011;2906;53.282;9.508;2022-12-05T02:02:24;51.72;;;19.63;;
5762;SDS011;2906;53.282;9.508;2022-12-05T02:03:26;50.17;;;19.75;;
5762;SDS011;2906;53.282;9.508;2022-12-05T02:04:28;57.28;;;21.80;;
5762;SDS011;2906;53.282;9.508;2022-12-05T02:05:30;60.25;;;20.05;;
5762;SDS011;2906;53.282;9.508;2022-12-05T02:06:33;53.88;;;22.17;;
5762;SDS011;2906;53.282;9.508;2022-12-05T02:07:36;53.33;;;20.90;;
5762;SDS011;2906;53.282;9.508;2022-12-05T02:08:39;47.15;;;19.67;;
5762;SDS011;2906;53.282;9.508;2022-12-05T02:09:41;49.95;;;19.48;;
5762;SDS011;2906;53.282;9.508;2022-12-05T02:10:44;48.70;;;20.35;;
5762;SDS011;2906;53.282;9.508;2022-12-05T02:11:48;55.15;;;20.92;;
5762;SDS011;2906;53.282;9.508;2022-12-05T02:12:52;55.00;;;21.33;;
5762;SDS011;2906;53.282;9.508;2022-12-05T02:13:59;51.53;;;20.15;;
5762;SDS011;2906;53.282;9.508;2022-12-05T02:15:07;46.13;;;18.63;;
5762;SDS011;2906;53.282;9.508;2022-12-05T02:16:13;53.08;;;20.15;;
5762;SDS011;2906;53.282;9.508;2022-12-05T02:17:20;56.00;;;20.25;;
5762;SDS011;2906;53.282;9.508;2022-12-05T02:18:26;55.92;;;20.50;;
5762;SDS011;2906;53.282;9.508;2022-12-05T02:19:35;51.58;;;19.90;;
5762;SDS011;2906;53.282;9.508;2022-12-05T02:20:43;51.63;;;19.45;;
5762;SDS011;2906;53.282;9.508;2022-12-05T02:21:59;49.35;;;18.00;;
5762;SDS011;2906;53.282;9.508;2022-12-05T02:23:16;52.78;;;20.63;;
5762;SDS011;2906;53.282;9.508;2022-12-05T02:24:26;54.92;;;20.73;;
5762;SDS011;2906;53.282;9.508;2022-12-05T02:25:39;47.58;;;20.58;;
5762;SDS011;2906;53.282;9.508;2022-12-05T02:26:47;46.95;;;19.48;;
5762;SDS011;2906;53.282;9.508;2022-12-05T02:27:56;45.17;;;20.08;;
5762;SDS011;2906;53.282;9.508;2022-12-05T02:30:24;49.70;;;20.30;;
5762;SDS011;2906;53.282;9.508;2022-12-05T02:31:29;50.17;;;20.17;;
5762;SDS011;2906;53.282;9.508;2022-12-05T02:32:37;46.33;;;18.83;;
5762;SDS011;2906;53.282;9.508;2022-12-05T02:33:44;51.25;;;19.92;;
5762;SDS011;2906;53.282;9.508;2022-12-05T02:34:46;46.65;;;18.25;;
5762;SDS011;2906;53.282;9.508;2022-12-05T02:35:53;59.42;;;21.75;;
5762;SDS011;2906;53.282;9.508;2022-12-05T02:36:56;56.58;;;20.45;;
5762;SDS011;2906;53.282;9.508;2022-12-05T02:38:03;49.05;;;19.48;;
5762;SDS011;2906;53.282;9.508;2022-12-05T02:39:11;57.75;;;21.25;;
5762;SDS011;2906;53.282;9.508;2022-12-05T02:40:18;51.10;;;19.55;;
5762;SDS011;2906;53.282;9.508;2022-12-05T02:41:23;50.40;;;19.13;;
5762;SDS011;2906;53.282;9.508;2022-12-05T02:42:27;51.60;;;20.80;;
5762;SDS011;2906;53.282;9.508;2022-12-05T02:43:31;48.15;;;18.98;;
5762;SDS011;2906;53.282;9.508;2022-12-05T02:44:36;52.33;;;19.73;;
5762;SDS011;2906;53.282;9.508;2022-12-05T02:45:41;51.72;;;20.05;;
5762;SDS011;2906;53.282;9.508;2022-12-05T02:46:46;49.85;;;18.65;;
5762;SDS011;2906;53.282;9.508;2022-12-05T02:47:50;49.75;;;19.45;;
5762;SDS011;2906;53.282;9.508;2022-12-05T02:48:54;44.22;;;18.13;;
5762;SDS011;2906;53.282;9.508;2022-12-05T02:49:57;61.10;;;20.23;;
5762;SDS011;2906;53.282;9.508;2022-12-05T02:51:00;55.22;;;19.35;;
5762;SDS011;2906;53.282;9.508;2022-12-05T02:52:05;49.40;;;19.48;;
5762;SDS011;2906;53.282;9.508;2022-12-05T02:53:09;47.47;;;18.67;;
5762;SDS011;2906;53.282;9.508;2022-12-05T02:54:12;47.15;;;19.80;;
5762;SDS011;2906;53.282;9.508;2022-12-05T02:55:15;52.80;;;19.75;;
5762;SDS011;2906;53.282;9.508;2022-12-05T02:56:19;54.60;;;20.85;;
5762;SDS011;2906;53.282;9.508;2022-12-05T02:57:21;54.65;;;20.30;;
5762;SDS011;2906;53.282;9.508;2022-12-05T02:58:24;48.72;;;19.23;;
5762;SDS011;2906;53.282;9.508;2022-12-05T02:59:28;50.97;;;18.88;;
5762;SDS011;2906;53.282;9.508;2022-12-05T03:00:30;46.55;;;18.60;;
5762;SDS011;2906;53.282;9.508;2022-12-05T03:01:33;45.67;;;19.10;;
5762;SDS011;2906;53.282;9.508;2022-12-05T03:02:37;47.03;;;18.52;;
5762;SDS011;2906;53.282;9.508;2022-12-05T03:03:40;44.97;;;17.65;;
5762;SDS011;2906;53.282;9.508;2022-12-05T03:04:42;44.30;;;19.10;;
5762;SDS011;2906;53.282;9.508;2022-12-05T03:05:45;46.42;;;18.02;;
5762;SDS011;2906;53.282;9.508;2022-12-05T03:06:49;43.15;;;16.98;;
5762;SDS011;2906;53.282;9.508;2022-12-05T03:07:53;53.00;;;20.10;;
5762;SDS011;2906;53.282;9.508;2022-12-05T03:08:57;51.75;;;19.13;;
5762;SDS011;2906;53.282;9.508;2022-12-05T03:10:02;46.25;;;16.80;;
5762;SDS011;2906;53.282;9.508;2022-12-05T03:11:04;49.60;;;18.42;;
5762;SDS011;2906;53.282;9.508;2022-12-05T03:12:09;51.55;;;19.75;;
5762;SDS011;2906;53.282;9.508;2022-12-05T03:13:12;52.08;;;19.55;;
5762;SDS011;2906;53.282;9.508;2022-12-05T03:14:16;50.22;;;19.60;;
5762;SDS011;2906;53.282;9.508;2022-12-05T03:15:21;43.88;;;17.17;;
5762;SDS011;2906;53.282;9.508;2022-12-05T03:16:25;45.40;;;18.25;;
5762;SDS011;2906;53.282;9.508;2022-12-05T03:17:31;40.75;;;18.33;;
5762;SDS011;2906;53.282;9.508;2022-12-05T03:18:39;43.08;;;18.00;;
5762;SDS011;2906;53.282;9.508;2022-12-05T03:19:43;48.05;;;18.63;;
5762;SDS011;2906;53.282;9.508;2022-12-05T03:20:51;42.88;;;17.27;;
5762;SDS011;2906;53.282;9.508;2022-12-05T03:21:57;59.08;;;19.92;;
5762;SDS011;2906;53.282;9.508;2022-12-05T03:23:02;45.67;;;17.38;;
5762;SDS011;2906;53.282;9.508;2022-12-05T03:24:06;46.25;;;17.92;;
5762;SDS011;2906;53.282;9.508;2022-12-05T03:25:09;44.75;;;18.10;;
5762;SDS011;2906;53.282;9.508;2022-12-05T03:26:14;45.75;;;18.30;;
5762;SDS011;2906;53.282;9.508;2022-12-05T03:27:20;48.13;;;19.13;;
5762;SDS011;2906;53.282;9.508;2022-12-05T03:28:23;40.45;;;16.63;;
5762;SDS011;2906;53.282;9.508;2022-12-05T03:29:28;47.88;;;18.20;;
5762;SDS011;2906;53.282;9.508;2022-12-05T03:30:31;43.63;;;17.73;;
5762;SDS011;2906;53.282;9.508;2022-12-05T03:31:38;50.55;;;17.80;;
5762;SDS011;2906;53.282;9.508;2022-12-05T03:32:44;48.70;;;17.63;;
5762;SDS011;2906;53.282;9.508;2022-12-05T03:33:50;49.65;;;17.73;;
5762;SDS011;2906;53.282;9.508;2022-12-05T03:35:01;41.35;;;17.10;;
5762;SDS011;2906;53.282;9.508;2022-12-05T03:36:05;47.60;;;17.52;;
5762;SDS011;2906;53.282;9.508;2022-12-05T03:37:11;47.10;;;17.95;;
5762;SDS011;2906;53.282;9.508;2022-12-05T03:38:15;48.65;;;16.67;;
5762;SDS011;2906;53.282;9.508;2022-12-05T03:39:20;47.50;;;18.40;;
5762;SDS011;2906;53.282;9.508;2022-12-05T03:40:26;48.70;;;17.95;;
5762;SDS011;2906;53.282;9.508;2022-12-05T03:41:31;51.42;;;19.60;;
5762;SDS011;2906;53.282;9.508;2022-12-05T03:42:38;46.58;;;18.02;;
5762;SDS011;2906;53.282;9.508;2022-12-05T03:43:43;48.97;;;19.15;;
5762;SDS011;2906;53.282;9.508;2022-12-05T03:44:48;46.13;;;19.05;;
5762;SDS011;2906;53.282;9.508;2022-12-05T03:45:52;49.25;;;18.92;;
5762;SDS011;2906;53.282;9.508;2022-12-05T03:46:58;40.70;;;17.75;;
5762;SDS011;2906;53.282;9.508;2022-12-05T03:48:05;41.65;;;17.15;;
5762;SDS011;2906;53.282;9.508;2022-12-05T03:49:09;47.60;;;19.15;;
5762;SDS011;2906;53.282;9.508;2022-12-05T03:50:13;47.25;;;18.42;;
5762;SDS011;2906;53.282;9.508;2022-12-05T03:51:17;43.85;;;17.92;;
5762;SDS011;2906;53.282;9.508;2022-12-05T03:52:23;47.10;;;18.70;;
5762;SDS011;2906;53.282;9.508;2022-12-05T03:53:27;41.60;;;19.05;;
5762;SDS011;2906;53.282;9.508;2022-12-05T03:54:32;45.67;;;17.92;;
5762;SDS011;2906;53.282;9.508;2022-12-05T03:55:36;44.63;;;18.05;;
5762;SDS011;2906;53.282;9.508;2022-12-05T03:56:40;40.00;;;16.65;;
5762;SDS011;2906;53.282;9.508;2022-12-05T03:57:43;46.90;;;18.35;;
5762;SDS011;2906;53.282;9.508;2022-12-05T03:58:48;44.08;;;17.50;;
5762;SDS011;2906;53.282;9.508;2022-12-05T03:59:51;46.88;;;19.25;;
5762;SDS011;2906;53.282;9.508;2022-12-05T04:00:56;40.90;;;17.30;;
5762;SDS011;2906;53.282;9.508;2022-12-05T04:02:01;41.83;;;17.13;;
5762;SDS011;2906;53.282;9.508;2022-12-05T04:03:06;43.70;;;17.50;;
5762;SDS011;2906;53.282;9.508;2022-12-05T04:04:10;41.72;;;17.45;;
5762;SDS011;2906;53.282;9.508;2022-12-05T04:05:15;47.03;;;17.23;;
5762;SDS011;2906;53.282;9.508;2022-12-05T04:06:20;49.70;;;18.08;;
5762;SDS011;2906;53.282;9.508;2022-12-05T04:07:24;42.25;;;17.92;;
5762;SDS011;2906;53.282;9.508;2022-12-05T04:08:27;45.20;;;17.45;;
5762;SDS011;2906;53.282;9.508;2022-12-05T04:09:32;40.67;;;17.50;;
5762;SDS011;2906;53.282;9.508;2022-12-05T04:10:38;38.20;;;17.08;;
5762;SDS011;2906;53.282;9.508;2022-12-05T04:11:48;45.08;;;17.75;;
5762;SDS011;2906;53.282;9.508;2022-12-05T04:12:52;47.85;;;17.27;;
5762;SDS011;2906;53.282;9.508;2022-12-05T04:13:55;45.17;;;16.88;;
5762;SDS011;2906;53.282;9.508;2022-12-05T04:15:01;43.15;;;17.40;;
5762;SDS011;2906;53.282;9.508;2022-12-05T04:16:04;44.15;;;17.85;;
5762;SDS011;2906;53.282;9.508;2022-12-05T04:17:25;40.03;;;16.60;;
5762;SDS011;2906;53.282;9.508;2022-12-05T04:18:33;35.90;;;15.25;;
5762;SDS011;2906;53.282;9.508;2022-12-05T04:19:38;44.15;;;16.55;;
5762;SDS011;2906;53.282;9.508;2022-12-05T04:20:54;50.05;;;16.55;;
5762;SDS011;2906;53.282;9.508;2022-12-05T04:22:11;38.42;;;15.32;;
5762;SDS011;2906;53.282;9.508;2022-12-05T04:23:14;42.42;;;16.55;;
5762;SDS011;2906;53.282;9.508;2022-12-05T04:24:17;40.63;;;17.15;;
5762;SDS011;2906;53.282;9.508;2022-12-05T04:25:38;39.70;;;16.85;;
5762;SDS011;2906;53.282;9.508;2022-12-05T04:26:46;38.20;;;15.77;;
5762;SDS011;2906;53.282;9.508;2022-12-05T04:27:50;40.38;;;15.50;;
5762;SDS011;2906;53.282;9.508;2022-12-05T04:28:55;44.15;;;16.70;;
5762;SDS011;2906;53.282;9.508;2022-12-05T04:30:00;45.33;;;17.30;;
5762;SDS011;2906;53.282;9.508;2022-12-05T04:31:04;42.03;;;15.90;;
5762;SDS011;2906;53.282;9.508;2022-12-05T04:32:07;42.65;;;15.88;;
5762;SDS011;2906;53.282;9.508;2022-12-05T04:33:10;42.50;;;16.75;;
5762;SDS011;2906;53.282;9.508;2022-12-05T04:34:17;39.08;;;14.70;;
5762;SDS011;2906;53.282;9.508;2022-12-05T04:35:21;40.85;;;16.35;;
5762;SDS011;2906;53.282;9.508;2022-12-05T04:36:24;41.40;;;16.80;;
5762;SDS011;2906;53.282;9.508;2022-12-05T04:37:29;34.83;;;15.23;;
5762;SDS011;2906;53.282;9.508;2022-12-05T04:38:34;52.88;;;16.40;;
5762;SDS011;2906;53.282;9.508;2022-12-05T04:39:40;37.83;;;15.60;;
5762;SDS011;2906;53.282;9.508;2022-12-05T04:40:44;43.63;;;16.00;;
5762;SDS011;2906;53.282;9.508;2022-12-05T04:41:50;38.17;;;15.75;;
5762;SDS011;2906;53.282;9.508;2022-12-05T04:42:53;41.30;;;16.42;;
5762;SDS011;2906;53.282;9.508;2022-12-05T04:43:56;44.50;;;15.98;;
5762;SDS011;2906;53.282;9.508;2022-12-05T04:45:01;38.55;;;15.88;;
5762;SDS011;2906;53.282;9.508;2022-12-05T04:46:05;45.13;;;15.40;;
5762;SDS011;2906;53.282;9.508;2022-12-05T04:47:09;38.63;;;15.13;;
5762;SDS011;2906;53.282;9.508;2022-12-05T04:48:14;38.17;;;14.55;;
5762;SDS011;2906;53.282;9.508;2022-12-05T04:49:20;47.17;;;16.70;;
5762;SDS011;2906;53.282;9.508;2022-12-05T04:50:22;39.47;;;15.65;;
5762;SDS011;2906;53.282;9.508;2022-12-05T04:51:26;40.40;;;17.17;;
5762;SDS011;2906;53.282;9.508;2022-12-05T04:52:29;36.70;;;14.95;;
5762;SDS011;2906;53.282;9.508;2022-12-05T04:53:31;39.00;;;15.98;;
5762;SDS011;2906;53.282;9.508;2022-12-05T04:54:35;37.10;;;14.68;;
5762;SDS011;2906;53.282;9.508;2022-12-05T04:55:39;37.90;;;14.95;;
5762;SDS011;2906;53.282;9.508;2022-12-05T04:56:42;38.35;;;15.43;;
5762;SDS011;2906;53.282;9.508;2022-12-05T04:57:48;34.28;;;13.98;;
5762;SDS011;2906;53.282;9.508;2022-12-05T04:58:50;34.60;;;13.90;;
5762;SDS011;2906;53.282;9.508;2022-12-05T04:59:53;34.83;;;13.63;;
5762;SDS011;2906;53.282;9.508;2022-12-05T05:00:55;35.67;;;14.38;;
5762;SDS011;2906;53.282;9.508;2022-12-05T05:02:02;37.13;;;14.50;;
5762;SDS011;2906;53.282;9.508;2022-12-05T05:03:05;38.67;;;14.75;;
5762;SDS011;2906;53.282;9.508;2022-12-05T05:04:10;44.85;;;16.15;;
5762;SDS011;2906;53.282;9.508;2022-12-05T05:05:15;39.00;;;14.98;;
5762;SDS011;2906;53.282;9.508;2022-12-05T05:06:19;44.25;;;17.17;;
5762;SDS011;2906;53.282;9.508;2022-12-05T05:07:20;37.25;;;15.15;;
5762;SDS011;2906;53.282;9.508;2022-12-05T05:08:23;37.55;;;14.50;;
5762;SDS011;2906;53.282;9.508;2022-12-05T05:09:26;36.83;;;15.23;;
5762;SDS011;2906;53.282;9.508;2022-12-05T05:10:31;38.15;;;14.68;;
5762;SDS011;2906;53.282;9.508;2022-12-05T05:11:33;38.10;;;15.65;;
5762;SDS011;2906;53.282;9.508;2022-12-05T05:12:38;36.00;;;14.00;;
5762;SDS011;2906;53.282;9.508;2022-12-05T05:13:40;35.92;;;14.55;;
5762;SDS011;2906;53.282;9.508;2022-12-05T05:14:42;36.13;;;13.95;;
5762;SDS011;2906;53.282;9.508;2022-12-05T05:15:43;36.80;;;15.55;;
5762;SDS011;2906;53.282;9.508;2022-12-05T05:16:46;41.65;;;15.82;;
5762;SDS011;2906;53.282;9.508;2022-12-05T05:17:47;35.72;;;14.75;;
5762;SDS011;2906;53.282;9.508;2022-12-05T05:18:50;38.60;;;14.15;;
5762;SDS011;2906;53.282;9.508;2022-12-05T05:19:51;33.05;;;13.07;;
5762;SDS011;2906;53.282;9.508;2022-12-05T05:21:18;36.78;;;14.90;;
5762;SDS011;2906;53.282;9.508;2022-12-05T05:22:20;42.08;;;15.32;;
5762;SDS011;2906;53.282;9.508;2022-12-05T05:23:21;35.85;;;13.55;;
5762;SDS011;2906;53.282;9.508;2022-12-05T05:24:24;36.55;;;14.25;;
5762;SDS011;2906;53.282;9.508;2022-12-05T05:25:26;34.92;;;13.27;;
5762;SDS011;2906;53.282;9.508;2022-12-05T05:26:28;37.58;;;14.13;;
5762;SDS011;2906;53.282;9.508;2022-12-05T05:27:31;36.85;;;15.07;;
5762;SDS011;2906;53.282;9.508;2022-12-05T05:28:32;35.30;;;14.30;;
5762;SDS011;2906;53.282;9.508;2022-12-05T05:29:34;31.60;;;13.48;;
5762;SDS011;2906;53.282;9.508;2022-12-05T05:30:36;35.75;;;14.80;;
5762;SDS011;2906;53.282;9.508;2022-12-05T05:31:39;36.42;;;14.73;;
5762;SDS011;2906;53.282;9.508;2022-12-05T05:32:40;35.67;;;14.27;;
5762;SDS011;2906;53.282;9.508;2022-12-05T05:33:43;39.22;;;14.93;;
5762;SDS011;2906;53.282;9.508;2022-12-05T05:34:45;39.10;;;14.05;;
5762;SDS011;2906;53.282;9.508;2022-12-05T05:35:47;36.97;;;14.20;;
5762;SDS011;2906;53.282;9.508;2022-12-05T05:36:51;37.13;;;13.88;;
5762;SDS011;2906;53.282;9.508;2022-12-05T05:37:53;38.05;;;13.57;;
5762;SDS011;2906;53.282;9.508;2022-12-05T05:38:56;34.50;;;14.38;;
5762;SDS011;2906;53.282;9.508;2022-12-05T05:39:59;42.30;;;15.40;;
5762;SDS011;2906;53.282;9.508;2022-12-05T05:41:00;37.17;;;14.52;;
5762;SDS011;2906;53.282;9.508;2022-12-05T05:42:03;36.08;;;14.75;;
5762;SDS011;2906;53.282;9.508;2022-12-05T05:43:05;36.30;;;14.43;;
5762;SDS011;2906;53.282;9.508;2022-12-05T05:44:06;44.15;;;14.70;;
5762;SDS011;2906;53.282;9.508;2022-12-05T05:45:10;38.33;;;14.25;;
5762;SDS011;2906;53.282;9.508;2022-12-05T05:46:12;33.40;;;14.43;;
5762;SDS011;2906;53.282;9.508;2022-12-05T05:47:15;43.63;;;13.95;;
5762;SDS011;2906;53.282;9.508;2022-12-05T05:48:17;36.65;;;14.45;;
5762;SDS011;2906;53.282;9.508;2022-12-05T05:49:19;35.55;;;13.90;;
5762;SDS011;2906;53.282;9.508;2022-12-05T05:50:20;39.05;;;14.32;;
5762;SDS011;2906;53.282;9.508;2022-12-05T05:51:23;33.50;;;13.50;;
5762;SDS011;2906;53.282;9.508;2022-12-05T05:52:28;40.65;;;14.75;;
5762;SDS011;2906;53.282;9.508;2022-12-05T05:53:30;38.13;;;15.52;;
5762;SDS011;2906;53.282;9.508;2022-12-05T05:54:32;34.58;;;14.70;;
5762;SDS011;2906;53.282;9.508;2022-12-05T05:55:34;33.53;;;14.23;;
5762;SDS011;2906;53.282;9.508;2022-12-05T05:56:35;36.90;;;14.90;;
5762;SDS011;2906;53.282;9.508;2022-12-05T05:57:39;38.65;;;14.48;;
5762;SDS011;2906;53.282;9.508;2022-12-05T05:58:41;40.22;;;15.35;;
5762;SDS011;2906;53.282;9.508;2022-12-05T05:59:43;36.10;;;14.60;;
5762;SDS011;2906;53.282;9.508;2022-12-05T06:00:45;39.30;;;15.27;;
5762;SDS011;2906;53.282;9.508;2022-12-05T06:01:47;34.50;;;15.38;;
5762;SDS011;2906;53.282;9.508;2022-12-05T06:02:49;36.25;;;14.43;;
5762;SDS011;2906;53.282;9.508;2022-12-05T06:03:50;34.88;;;14.82;;
5762;SDS011;2906;53.282;9.508;2022-12-05T06:04:53;41.88;;;15.52;;
5762;SDS011;2906;53.282;9.508;2022-12-05T06:05:55;44.88;;;15.65;;
5762;SDS011;2906;53.282;9.508;2022-12-05T06:06:57;40.25;;;15.90;;
5762;SDS011;2906;53.282;9.508;2022-12-05T06:08:00;35.05;;;14.73;;
5762;SDS011;2906;53.282;9.508;2022-12-05T06:09:05;34.97;;;14.40;;
5762;SDS011;2906;53.282;9.508;2022-12-05T06:10:06;47.42;;;14.95;;
5762;SDS011;2906;53.282;9.508;2022-12-05T06:11:09;41.17;;;14.02;;
5762;SDS011;2906;53.282;9.508;2022-12-05T06:12:12;37.72;;;14.10;;
5762;SDS011;2906;53.282;9.508;2022-12-05T06:13:15;39.63;;;14.35;;
5762;SDS011;2906;53.282;9.508;2022-12-05T06:14:16;40.08;;;15.35;;
5762;SDS011;2906;53.282;9.508;2022-12-05T06:15:18;41.58;;;15.95;;
5762;SDS011;2906;53.282;9.508;2022-12-05T06:16:21;42.08;;;15.63;;
5762;SDS011;2906;53.282;9.508;2022-12-05T06:17:22;37.95;;;14.65;;
5762;SDS011;2906;53.282;9.508;2022-12-05T06:18:24;37.55;;;14.55;;
5762;SDS011;2906;53.282;9.508;2022-12-05T06:19:26;42.08;;;15.02;;
5762;SDS011;2906;53.282;9.508;2022-12-05T06:20:28;37.03;;;13.38;;
5762;SDS011;2906;53.282;9.508;2022-12-05T06:21:29;39.67;;;14.27;;
5762;SDS011;2906;53.282;9.508;2022-12-05T06:22:32;41.08;;;14.52;;
5762;SDS011;2906;53.282;9.508;2022-12-05T06:23:35;37.20;;;14.88;;
5762;SDS011;2906;53.282;9.508;2022-12-05T06:24:40;40.08;;;14.68;;
5762;SDS011;2906;53.282;9.508;2022-12-05T06:25:45;31.17;;;12.10;;
5762;SDS011;2906;53.282;9.508;2022-12-05T06:26:48;42.38;;;14.45;;